Time;durP1;ratioP1;P1;durP2;ratioP2;P2;SDS_P1;SDS_P2;PMS_P1;PMS_P2;Temp;Humidity;BMP_temperature;BMP_pressure;BME280_temperature;BME280_humidity;BME280_pressure;Samples;Min_cycle;Max_cycle;Signal;HPM_P1;HPM_P2
2022/09/25 00:01:28;;;;;;;2.60;2.40;;;11.70;99.90;;;;;;486384;244;28185;-69
2022/09/25 00:03:29;;;;;;;2.70;2.50;;;11.70;99.90;;;;;;486398;244;28618;-69
2022/09/25 00:05:30;;;;;;;2.53;2.33;;;11.70;99.90;;;;;;486407;244;28785;-70
2022/09/25 00:07:32;;;;;;;2.57;2.47;;;11.70;99.90;;;;;;486348;244;28514;-68
2022/09/25 00:09:33;;;;;;;2.47;2.27;;;11.70;99.90;;;;;;486400;244;28114;-68
2022/09/25 00:11:37;;;;;;;3.03;2.70;;;11.70;99.90;;;;;;486378;244;28208;-68
2022/09/25 00:13:35;;;;;;;2.73;2.53;;;11.60;99.90;;;;;;486132;242;28190;-68
2022/09/25 00:15:37;;;;;;;3.10;2.70;;;11.70;99.90;;;;;;486380;244;28225;-72
2022/09/25 00:17:38;;;;;;;2.70;2.43;;;11.60;99.90;;;;;;486320;244;28221;-70
2022/09/25 00:19:51;;;;;;;2.67;2.47;;;11.70;99.90;;;;;;486360;244;28293;-69
2022/09/25 00:21:53;;;;;;;2.23;2.13;;;11.70;99.90;;;;;;486388;244;28113;-71
2022/09/25 00:23:54;;;;;;;2.90;2.70;;;11.60;99.90;;;;;;486359;244;28239;-68
2022/09/25 00:25:55;;;;;;;2.50;2.40;;;11.60;99.90;;;;;;486364;244;28085;-70
2022/09/25 00:27:56;;;;;;;2.33;2.23;;;11.60;99.90;;;;;;486341;244;28282;-68
2022/09/25 00:29:58;;;;;;;2.50;2.30;;;11.70;99.90;;;;;;486374;244;28235;-68
2022/09/25 00:31:59;;;;;;;2.60;2.40;;;11.70;99.90;;;;;;486330;241;28433;-72
2022/09/25 00:34:00;;;;;;;2.70;2.50;;;11.70;99.90;;;;;;486383;244;28209;-69
2022/09/25 00:36:03;;;;;;;3.00;2.80;;;11.60;99.90;;;;;;486313;244;28221;-70
2022/09/25 00:38:03;;;;;;;2.40;2.30;;;11.60;99.90;;;;;;486252;244;28633;-68
2022/09/25 00:40:04;;;;;;;3.03;2.40;;;11.60;99.90;;;;;;486351;244;28545;-69
2022/09/25 00:42:05;;;;;;;2.77;2.57;;;11.60;99.90;;;;;;486344;244;28627;-71
2022/09/25 00:44:06;;;;;;;2.47;2.27;;;11.60;99.90;;;;;;486369;244;28318;-69
2022/09/25 00:46:08;;;;;;;2.07;1.97;;;11.60;99.90;;;;;;486301;244;28053;-69
2022/09/25 00:48:09;;;;;;;2.40;2.20;;;11.60;99.90;;;;;;486364;244;28231;-69
2022/09/25 00:50:10;;;;;;;2.67;2.50;;;11.60;99.90;;;;;;486358;244;28180;-69
2022/09/25 00:52:15;;;;;;;2.50;2.30;;;11.60;99.90;;;;;;486380;244;28241;-72
2022/09/25 00:54:16;;;;;;;2.80;2.50;;;11.60;99.90;;;;;;486366;244;28318;-69
2022/09/25 00:56:17;;;;;;;2.63;2.43;;;11.60;99.90;;;;;;486293;244;28406;-68
2022/09/25 00:58:18;;;;;;;2.37;2.17;;;11.60;99.90;;;;;;486322;244;28770;-69
2022/09/25 01:00:20;;;;;;;2.10;2.00;;;11.60;99.90;;;;;;486363;244;28845;-71
2022/09/25 01:02:21;;;;;;;2.27;2.13;;;11.60;99.90;;;;;;486345;244;28683;-69
2022/09/25 01:04:22;;;;;;;2.37;2.27;;;11.60;99.90;;;;;;486344;244;28814;-71
2022/09/25 01:06:24;;;;;;;4.53;3.97;;;11.60;99.90;;;;;;486295;244;28302;-68
2022/09/25 01:08:25;;;;;;;2.13;2.03;;;11.60;99.90;;;;;;486316;244;28256;-69
2022/09/25 01:10:26;;;;;;;2.30;2.10;;;11.60;99.90;;;;;;486383;244;28210;-71
2022/09/25 01:12:27;;;;;;;2.43;2.30;;;11.60;99.90;;;;;;486408;244;28190;-68
2022/09/25 01:14:28;;;;;;;2.30;2.20;;;11.60;99.90;;;;;;486398;244;28230;-68
2022/09/25 01:16:30;;;;;;;2.20;2.10;;;11.70;99.90;;;;;;486334;244;28159;-68
2022/09/25 01:18:31;;;;;;;2.30;2.10;;;11.70;99.90;;;;;;486396;244;28352;-68
2022/09/25 01:20:32;;;;;;;2.40;2.30;;;11.70;99.90;;;;;;486398;244;28301;-70
2022/09/25 01:24:54;;;;;;;2.80;2.30;;;11.70;99.90;;;;;;471165;252;28347;-71
2022/09/25 01:26:55;;;;;;;2.50;2.30;;;11.70;99.90;;;;;;476914;249;28121;-70
2022/09/25 01:28:57;;;;;;;2.67;2.47;;;11.60;99.90;;;;;;468266;253;28288;-69
2022/09/25 01:30:58;;;;;;;2.37;2.27;;;11.60;99.90;;;;;;468542;253;28270;-68
2022/09/25 01:32:59;;;;;;;2.10;2.00;;;11.70;99.90;;;;;;468509;254;28465;-68
2022/09/25 01:35:00;;;;;;;2.90;2.20;;;11.70;99.90;;;;;;468554;253;28200;-72
2022/09/25 01:37:02;;;;;;;2.60;2.40;;;11.70;99.90;;;;;;468481;253;28270;-68
2022/09/25 01:39:03;;;;;;;2.53;2.33;;;11.70;99.90;;;;;;468543;253;28217;-69
2022/09/25 01:41:04;;;;;;;2.60;2.40;;;11.70;99.90;;;;;;468540;253;28156;-69
2022/09/25 01:43:05;;;;;;;2.50;2.30;;;11.70;99.90;;;;;;468521;253;28820;-69
2022/09/25 01:45:07;;;;;;;2.60;2.40;;;11.70;99.90;;;;;;468541;253;28755;-71
2022/09/25 01:47:08;;;;;;;2.43;2.30;;;11.70;99.90;;;;;;468498;253;28465;-69
2022/09/25 01:49:09;;;;;;;2.60;2.40;;;11.70;99.90;;;;;;468531;253;28784;-69
2022/09/25 01:51:10;;;;;;;2.47;2.27;;;11.70;99.90;;;;;;468520;253;28192;-68
2022/09/25 01:53:12;;;;;;;2.37;2.23;;;11.70;99.90;;;;;;473039;240;28191;-69
2022/09/25 01:55:13;;;;;;;2.70;2.50;;;11.70;99.90;;;;;;483579;246;28180;-73
2022/09/25 01:57:14;;;;;;;2.33;2.13;;;11.60;99.90;;;;;;483517;246;28233;-69
2022/09/25 01:59:15;;;;;;;2.53;2.33;;;11.60;99.90;;;;;;483569;246;27982;-68
2022/09/25 02:01:17;;;;;;;2.53;2.33;;;11.60;99.90;;;;;;482615;246;27954;-68
2022/09/25 02:03:20;;;;;;;2.40;2.20;;;11.60;99.90;;;;;;482614;246;27957;-68
2022/09/25 02:05:19;;;;;;;3.20;2.47;;;11.60;99.90;;;;;;482519;246;28088;-71
2022/09/25 02:07:21;;;;;;;2.60;2.40;;;11.60;99.90;;;;;;482571;246;28014;-69
2022/09/25 02:09:22;;;;;;;2.60;2.40;;;11.60;99.90;;;;;;482617;246;28280;-69
2022/09/25 02:11:23;;;;;;;2.60;2.40;;;11.60;99.90;;;;;;482597;246;28041;-68
2022/09/25 02:13:24;;;;;;;2.50;2.30;;;11.60;99.90;;;;;;481615;245;28158;-69
2022/09/25 02:15:25;;;;;;;3.23;2.93;;;11.60;99.90;;;;;;483848;246;28481;-71
2022/09/25 02:22:06;;;;;;;2.40;2.20;;;11.60;99.90;;;;;;483844;246;28101;-70
2022/09/25 02:24:07;;;;;;;2.27;2.07;;;11.60;99.90;;;;;;483854;246;28063;-67
2022/09/25 02:26:08;;;;;;;4.47;3.60;;;11.60;99.90;;;;;;483786;246;28135;-69
2022/09/25 02:28:10;;;;;;;3.10;2.83;;;11.60;99.90;;;;;;483849;246;28925;-71
2022/09/25 02:30:11;;;;;;;2.50;2.30;;;11.60;99.90;;;;;;483871;246;29265;-68
2022/09/25 02:32:12;;;;;;;2.17;2.07;;;11.60;99.90;;;;;;483889;246;28503;-69
2022/09/25 02:34:13;;;;;;;2.90;2.60;;;11.60;99.90;;;;;;483868;246;28706;-68
2022/09/25 02:36:15;;;;;;;3.10;2.53;;;11.60;99.90;;;;;;483831;246;28040;-69
2022/09/25 02:38:16;;;;;;;2.87;2.67;;;11.60;99.90;;;;;;483886;244;28041;-68
2022/09/25 02:40:17;;;;;;;3.30;3.00;;;11.60;99.90;;;;;;483867;246;28167;-68
2022/09/25 02:42:18;;;;;;;3.10;2.80;;;11.60;99.90;;;;;;483875;246;28004;-70
2022/09/25 02:44:20;;;;;;;3.20;2.80;;;11.70;99.90;;;;;;483880;246;28226;-68
2022/09/25 02:46:21;;;;;;;4.63;3.20;;;11.70;99.90;;;;;;483783;246;28214;-68
2022/09/25 02:48:22;;;;;;;4.00;3.00;;;11.60;99.90;;;;;;483862;246;28263;-71
2022/09/25 02:50:23;;;;;;;3.70;3.27;;;11.60;99.90;;;;;;483874;246;28129;-68
2022/09/25 02:52:25;;;;;;;3.80;3.50;;;11.60;99.90;;;;;;483855;246;28882;-68
2022/09/25 02:54:26;;;;;;;4.60;3.67;;;11.60;99.90;;;;;;483827;246;28454;-68
2022/09/25 02:56:27;;;;;;;4.77;3.57;;;11.60;99.90;;;;;;483803;246;28389;-68
2022/09/25 02:58:28;;;;;;;4.33;3.80;;;11.60;99.90;;;;;;483860;246;28739;-71
2022/09/25 03:00:30;;;;;;;5.97;4.53;;;11.60;99.90;;;;;;483876;246;28184;-68
2022/09/25 03:02:31;;;;;;;6.50;4.70;;;11.60;99.90;;;;;;483789;246;28224;-70
2022/09/25 03:04:33;;;;;;;6.17;4.73;;;11.60;99.90;;;;;;483808;246;27996;-68
2022/09/25 03:06:33;;;;;;;6.57;4.97;;;11.60;99.90;;;;;;483704;246;28203;-68
2022/09/25 03:08:37;;;;;;;6.87;4.80;;;11.60;99.90;;;;;;483872;246;28021;-72
2022/09/25 03:10:38;;;;;;;6.23;4.67;;;11.50;99.90;;;;;;483857;246;28096;-68
2022/09/25 03:12:40;;;;;;;6.40;4.40;;;11.50;99.90;;;;;;483843;246;28113;-68
2022/09/25 03:14:41;;;;;;;7.83;4.73;;;11.50;99.90;;;;;;483810;246;28288;-70
2022/09/25 03:16:42;;;;;;;7.13;5.53;;;11.50;99.90;;;;;;483673;246;27973;-67
2022/09/25 03:18:44;;;;;;;9.40;6.07;;;11.50;99.90;;;;;;483745;246;28621;-69
2022/09/25 03:20:45;;;;;;;9.43;5.53;;;11.50;99.90;;;;;;483742;246;28910;-71
2022/09/25 03:24:51;;;;;;;7.50;5.77;;;11.40;99.90;;;;;;480966;246;28606;-70
2022/09/25 03:26:55;;;;;;;9.50;5.90;;;11.40;99.90;;;;;;488059;242;28052;-68
2022/09/25 03:29:01;;;;;;;9.77;6.70;;;11.40;99.90;;;;;;488045;243;28050;-69
2022/09/25 03:30:58;;;;;;;8.67;6.10;;;11.40;99.90;;;;;;487911;243;27942;-68
2022/09/25 03:32:59;;;;;;;9.40;6.70;;;11.40;99.90;;;;;;488190;243;28247;-70
2022/09/25 03:35:00;;;;;;;8.70;5.67;;;11.40;99.90;;;;;;488209;243;28182;-68
2022/09/25 03:37:02;;;;;;;9.50;6.00;;;11.40;99.90;;;;;;488168;243;28632;-68
2022/09/25 03:39:04;;;;;;;11.07;6.67;;;11.40;99.90;;;;;;488201;243;28733;-68
2022/09/25 03:41:07;;;;;;;9.53;6.30;;;11.40;99.90;;;;;;488121;243;28622;-68
2022/09/25 03:43:05;;;;;;;9.70;6.07;;;11.40;99.90;;;;;;488028;243;28237;-71
2022/09/25 03:45:08;;;;;;;9.10;6.53;;;11.30;99.90;;;;;;488238;243;28284;-69
2022/09/25 03:47:08;;;;;;;9.57;6.10;;;11.40;99.90;;;;;;488076;243;28214;-69
2022/09/25 03:49:09;;;;;;;8.70;6.37;;;11.40;99.90;;;;;;488197;243;28131;-68
2022/09/25 03:51:11;;;;;;;10.77;6.40;;;11.40;99.90;;;;;;488200;243;28276;-68
2022/09/25 03:53:12;;;;;;;9.47;5.77;;;11.40;99.90;;;;;;488211;243;28115;-69
2022/09/25 03:55:13;;;;;;;9.90;7.17;;;11.30;99.90;;;;;;488179;243;27952;-68
2022/09/25 03:57:14;;;;;;;10.73;5.97;;;11.40;99.90;;;;;;488129;243;28085;-68
2022/09/25 03:59:15;;;;;;;7.53;5.47;;;11.40;99.90;;;;;;488146;243;29545;-68
2022/09/25 04:01:20;;;;;;;8.97;6.20;;;11.40;99.90;;;;;;488222;243;28745;-69
2022/09/25 04:03:21;;;;;;;10.33;6.43;;;11.40;99.90;;;;;;487835;242;28690;-68
2022/09/25 04:05:20;;;;;;;10.50;6.57;;;11.40;99.90;;;;;;488000;243;28101;-68
2022/09/25 04:07:21;;;;;;;9.70;6.50;;;11.40;99.90;;;;;;488149;243;28331;-69
2022/09/25 04:09:22;;;;;;;11.20;7.10;;;11.40;99.90;;;;;;488214;243;28317;-69
2022/09/25 04:11:23;;;;;;;8.50;5.87;;;11.40;99.90;;;;;;488201;243;28036;-68
2022/09/25 04:13:24;;;;;;;9.57;6.43;;;11.40;99.90;;;;;;488204;243;28198;-70
2022/09/25 04:15:26;;;;;;;10.17;6.60;;;11.40;99.90;;;;;;488196;243;28192;-69
2022/09/25 04:17:28;;;;;;;8.70;6.17;;;11.40;99.90;;;;;;488112;243;28091;-69
2022/09/25 04:19:28;;;;;;;11.13;6.30;;;11.40;99.90;;;;;;488152;243;27931;-68
2022/09/25 04:21:29;;;;;;;7.97;5.17;;;11.40;99.90;;;;;;488188;243;28656;-69
2022/09/25 04:23:31;;;;;;;8.00;5.57;;;11.40;99.90;;;;;;488164;243;28773;-70
2022/09/25 04:25:32;;;;;;;7.50;5.77;;;11.40;99.90;;;;;;488204;242;28773;-68
2022/09/25 04:27:33;;;;;;;10.40;6.03;;;11.40;99.90;;;;;;488144;243;28219;-68
2022/09/25 04:29:34;;;;;;;7.40;5.03;;;11.50;99.90;;;;;;488207;243;27952;-68
2022/09/25 04:31:36;;;;;;;5.57;4.67;;;11.50;99.90;;;;;;488199;243;28073;-69
2022/09/25 04:33:46;;;;;;;8.67;5.33;;;11.50;99.90;;;;;;488216;243;28215;-71
2022/09/25 04:35:47;;;;;;;7.53;5.10;;;11.40;99.90;;;;;;488119;243;28533;-70
2022/09/25 04:37:48;;;;;;;6.93;5.33;;;11.50;99.90;;;;;;488146;243;28682;-68
2022/09/25 04:39:49;;;;;;;7.13;5.40;;;11.50;99.90;;;;;;488168;243;29075;-69
2022/09/25 04:41:51;;;;;;;8.67;6.07;;;11.40;99.90;;;;;;488191;242;27943;-68
2022/09/25 04:43:52;;;;;;;7.60;5.83;;;11.50;99.90;;;;;;488187;243;28147;-69
2022/09/25 04:45:53;;;;;;;7.37;5.70;;;11.40;99.90;;;;;;488206;243;28211;-70
2022/09/25 04:47:54;;;;;;;8.20;5.13;;;11.40;99.90;;;;;;488130;243;28296;-69
2022/09/25 04:49:56;;;;;;;6.17;4.83;;;11.40;99.90;;;;;;488224;243;28193;-69
2022/09/25 04:51:57;;;;;;;7.57;5.20;;;11.40;99.90;;;;;;488095;241;28219;-69
2022/09/25 04:53:58;;;;;;;7.87;5.70;;;11.40;99.90;;;;;;488065;243;28285;-68
2022/09/25 04:55:59;;;;;;;8.47;5.87;;;11.40;99.90;;;;;;488050;243;28467;-71
2022/09/25 04:58:01;;;;;;;9.30;5.90;;;11.40;99.90;;;;;;488015;243;28616;-68
2022/09/25 05:00:02;;;;;;;5.73;5.00;;;11.40;99.90;;;;;;488191;243;28682;-70
2022/09/25 05:02:03;;;;;;;7.60;5.27;;;11.50;99.90;;;;;;488220;243;28754;-68
2022/09/25 05:04:04;;;;;;;8.10;5.87;;;11.40;99.90;;;;;;488215;243;28656;-69
2022/09/25 05:06:06;;;;;;;6.27;5.40;;;11.40;99.90;;;;;;488102;243;28233;-70
2022/09/25 05:08:07;;;;;;;8.77;5.50;;;11.50;99.90;;;;;;488220;243;28070;-69
2022/09/25 05:10:08;;;;;;;7.40;5.43;;;11.50;99.90;;;;;;488232;243;28206;-68
2022/09/25 05:12:09;;;;;;;7.50;5.30;;;11.50;99.90;;;;;;488241;243;28328;-68
2022/09/25 05:14:11;;;;;;;6.90;5.50;;;11.50;99.90;;;;;;488232;243;28114;-69
2022/09/25 05:16:12;;;;;;;9.97;6.10;;;11.50;99.90;;;;;;488066;243;28303;-70
2022/09/25 05:18:13;;;;;;;8.20;5.63;;;11.50;99.90;;;;;;488229;243;28146;-68
2022/09/25 05:20:15;;;;;;;6.90;5.00;;;11.40;99.90;;;;;;488175;243;28276;-68
2022/09/25 05:22:16;;;;;;;7.10;5.47;;;11.50;99.90;;;;;;488177;243;28999;-72
2022/09/25 05:24:17;;;;;;;7.30;5.13;;;11.50;99.90;;;;;;488186;243;28702;-68
2022/09/25 05:26:18;;;;;;;8.47;5.83;;;11.40;99.90;;;;;;487956;243;28771;-70
2022/09/25 05:28:19;;;;;;;6.80;5.30;;;11.40;99.90;;;;;;488217;243;28966;-68
2022/09/25 05:30:21;;;;;;;7.27;5.50;;;11.40;99.90;;;;;;488221;243;28085;-69
2022/09/25 05:32:22;;;;;;;9.17;5.53;;;11.40;99.90;;;;;;488228;243;28198;-71
2022/09/25 05:34:23;;;;;;;8.80;5.80;;;11.50;99.90;;;;;;488208;243;28022;-68
2022/09/25 05:36:24;;;;;;;8.43;5.93;;;11.50;99.90;;;;;;488050;243;28236;-71
2022/09/25 05:38:26;;;;;;;8.20;5.77;;;11.50;99.90;;;;;;488172;243;28185;-68
2022/09/25 05:40:27;;;;;;;6.70;5.77;;;11.50;99.90;;;;;;488208;243;28233;-69
2022/09/25 05:42:28;;;;;;;7.30;5.90;;;11.50;99.90;;;;;;488233;243;28046;-71
2022/09/25 05:44:30;;;;;;;9.43;6.10;;;11.50;99.90;;;;;;488214;243;28380;-69
2022/09/25 05:46:31;;;;;;;8.27;6.00;;;11.50;99.90;;;;;;488089;243;28078;-69
2022/09/25 05:48:32;;;;;;;8.67;5.27;;;11.50;99.90;;;;;;488219;243;28631;-69
2022/09/25 05:50:33;;;;;;;8.87;6.57;;;11.60;99.90;;;;;;488187;243;28897;-68
2022/09/25 05:52:34;;;;;;;9.87;6.03;;;11.50;99.90;;;;;;488223;243;28669;-71
2022/09/25 05:54:36;;;;;;;9.23;6.53;;;11.50;99.90;;;;;;488214;243;28058;-69
2022/09/25 05:56:37;;;;;;;8.90;5.80;;;11.50;99.90;;;;;;488043;243;28301;-69
2022/09/25 05:58:38;;;;;;;9.10;6.20;;;11.50;99.90;;;;;;488220;243;28185;-68
2022/09/25 06:00:39;;;;;;;7.00;5.60;;;11.50;99.90;;;;;;488203;243;28660;-69
2022/09/25 06:02:41;;;;;;;9.20;6.23;;;11.50;99.90;;;;;;488215;243;28232;-71
2022/09/25 06:04:42;;;;;;;8.40;6.17;;;11.50;99.90;;;;;;488200;243;28051;-69
2022/09/25 06:06:43;;;;;;;7.93;5.70;;;11.50;99.90;;;;;;488119;243;28334;-69
2022/09/25 06:08:44;;;;;;;8.80;5.83;;;11.50;99.90;;;;;;488180;243;28338;-68
2022/09/25 06:10:46;;;;;;;7.90;5.80;;;11.50;99.90;;;;;;487970;243;28312;-68
2022/09/25 06:12:47;;;;;;;8.17;5.70;;;11.50;99.90;;;;;;488210;242;28784;-71
2022/09/25 06:14:48;;;;;;;10.30;5.73;;;11.50;99.90;;;;;;488213;243;28089;-68
2022/09/25 06:16:50;;;;;;;9.23;6.33;;;11.50;99.90;;;;;;487996;243;28107;-69
2022/09/25 06:18:51;;;;;;;7.50;5.70;;;11.50;99.90;;;;;;488219;243;28130;-68
2022/09/25 06:20:52;;;;;;;10.57;6.20;;;11.50;99.90;;;;;;488188;243;28210;-69
2022/09/25 06:22:53;;;;;;;8.20;5.93;;;11.50;99.90;;;;;;488215;243;28165;-71
2022/09/25 06:24:55;;;;;;;8.90;5.70;;;11.50;99.90;;;;;;488186;243;28288;-68
2022/09/25 06:26:56;;;;;;;10.17;6.23;;;11.50;99.90;;;;;;488029;243;27989;-68
2022/09/25 06:28:58;;;;;;;9.67;6.80;;;11.50;99.90;;;;;;488225;243;28660;-68
2022/09/25 06:30:58;;;;;;;9.20;6.37;;;11.50;99.90;;;;;;488162;243;28611;-68
2022/09/25 06:33:00;;;;;;;10.00;6.20;;;11.50;99.90;;;;;;488195;243;28588;-71
2022/09/25 06:35:01;;;;;;;8.70;5.90;;;11.50;99.90;;;;;;488237;243;28491;-68
2022/09/25 06:37:02;;;;;;;8.87;6.33;;;11.50;99.90;;;;;;488170;243;28192;-69
2022/09/25 06:39:03;;;;;;;12.70;6.40;;;11.50;99.90;;;;;;488203;243;28161;-68
2022/09/25 06:41:05;;;;;;;9.53;6.30;;;11.50;99.90;;;;;;488235;243;27818;-69
2022/09/25 06:43:06;;;;;;;10.40;6.67;;;11.50;99.90;;;;;;488212;243;28102;-71
2022/09/25 06:45:09;;;;;;;8.43;6.23;;;11.50;99.90;;;;;;488203;243;28181;-68
2022/09/25 06:47:11;;;;;;;7.83;5.30;;;11.60;99.90;;;;;;488028;243;28205;-69
2022/09/25 06:49:10;;;;;;;7.93;5.90;;;11.60;99.90;;;;;;488066;243;27949;-68
2022/09/25 06:51:11;;;;;;;8.00;5.87;;;11.60;99.90;;;;;;488215;243;28312;-68
2022/09/25 06:53:12;;;;;;;8.70;5.73;;;11.60;99.90;;;;;;488240;243;28834;-71
2022/09/25 06:55:13;;;;;;;8.37;5.80;;;11.70;99.90;;;;;;488213;241;28650;-68
2022/09/25 06:57:15;;;;;;;8.27;5.73;;;11.70;99.90;;;;;;487979;243;28695;-69
2022/09/25 06:59:16;;;;;;;9.30;6.17;;;11.70;99.90;;;;;;488229;243;28218;-69
2022/09/25 07:01:17;;;;;;;10.20;5.87;;;11.70;99.90;;;;;;488214;243;28181;-69
2022/09/25 07:05:38;;;;;;;8.53;5.37;;;11.70;99.90;;;;;;488185;243;28189;-70
2022/09/25 07:07:39;;;;;;;8.80;6.43;;;11.70;99.90;;;;;;488074;243;28088;-70
2022/09/25 07:09:40;;;;;;;8.30;6.10;;;11.70;99.90;;;;;;488211;243;28109;-72
2022/09/25 07:11:42;;;;;;;10.27;7.20;;;11.70;99.90;;;;;;488190;243;28183;-69
2022/09/25 07:13:43;;;;;;;8.70;6.20;;;11.70;99.90;;;;;;488179;243;28199;-71
2022/09/25 07:15:44;;;;;;;8.20;6.03;;;11.70;99.90;;;;;;488204;243;28350;-69
2022/09/25 07:17:45;;;;;;;8.47;6.53;;;11.70;99.90;;;;;;488155;243;28413;-69
2022/09/25 07:19:47;;;;;;;8.30;6.20;;;11.80;99.90;;;;;;488214;243;28213;-72
2022/09/25 07:21:48;;;;;;;8.23;6.13;;;11.70;99.90;;;;;;488214;243;28733;-67
2022/09/25 07:23:49;;;;;;;8.47;5.43;;;11.80;99.90;;;;;;488199;243;28916;-69
2022/09/25 07:25:50;;;;;;;8.80;5.90;;;11.80;99.90;;;;;;488156;241;28701;-69
2022/09/25 07:27:51;;;;;;;7.83;5.73;;;11.80;99.90;;;;;;488154;243;28167;-69
2022/09/25 07:29:53;;;;;;;8.30;5.90;;;11.80;99.90;;;;;;488208;243;28197;-72
2022/09/25 07:31:54;;;;;;;7.73;6.43;;;11.80;99.90;;;;;;488206;243;28164;-69
2022/09/25 07:33:55;;;;;;;9.93;6.67;;;11.80;99.90;;;;;;488200;243;28182;-70
2022/09/25 07:35:56;;;;;;;8.60;6.27;;;11.80;99.90;;;;;;488183;243;28163;-69
2022/09/25 07:37:58;;;;;;;10.20;6.07;;;11.90;99.90;;;;;;488162;243;28196;-69
2022/09/25 07:39:59;;;;;;;9.30;6.70;;;11.90;99.90;;;;;;488216;243;28317;-71
2022/09/25 07:42:00;;;;;;;9.10;6.30;;;12.00;99.90;;;;;;488210;243;28224;-70
2022/09/25 07:44:01;;;;;;;8.50;6.40;;;12.00;99.90;;;;;;488159;243;28605;-69
2022/09/25 07:46:03;;;;;;;8.27;6.10;;;12.10;99.90;;;;;;488163;243;28783;-73
2022/09/25 07:48:05;;;;;;;9.87;6.50;;;12.10;99.90;;;;;;488173;243;28952;-69
2022/09/25 07:50:05;;;;;;;10.00;6.47;;;12.10;99.90;;;;;;488192;243;28741;-72
2022/09/25 07:52:06;;;;;;;9.30;6.47;;;12.10;99.90;;;;;;488203;243;28152;-69
2022/09/25 07:54:08;;;;;;;7.00;5.50;;;12.10;99.90;;;;;;488189;243;28214;-70
2022/09/25 07:56:09;;;;;;;8.40;6.17;;;12.10;99.90;;;;;;488129;243;28148;-69
2022/09/25 07:58:10;;;;;;;6.93;5.57;;;12.20;99.90;;;;;;488193;243;28247;-70
2022/09/25 08:00:11;;;;;;;7.47;6.07;;;12.20;99.90;;;;;;488187;243;28344;-71
2022/09/25 08:02:13;;;;;;;8.17;6.10;;;12.20;99.90;;;;;;488196;242;28308;-69
2022/09/25 08:04:14;;;;;;;5.93;4.87;;;12.20;99.90;;;;;;488190;243;28225;-70
2022/09/25 08:06:15;;;;;;;8.03;5.60;;;12.20;99.90;;;;;;488139;243;28171;-69
2022/09/25 08:08:17;;;;;;;7.63;5.70;;;12.30;99.90;;;;;;488208;243;28877;-70
2022/09/25 08:10:18;;;;;;;8.10;5.83;;;12.30;99.90;;;;;;488214;243;29065;-71
2022/09/25 08:12:19;;;;;;;8.53;6.40;;;12.30;99.90;;;;;;488222;243;29351;-69
2022/09/25 08:14:21;;;;;;;8.00;6.57;;;12.40;99.90;;;;;;488217;243;28327;-69
2022/09/25 08:16:22;;;;;;;8.03;5.93;;;12.40;99.90;;;;;;488147;243;28099;-69
2022/09/25 08:18:23;;;;;;;7.63;6.10;;;12.30;99.90;;;;;;488199;243;28410;-69
2022/09/25 08:20:24;;;;;;;8.20;6.20;;;12.30;99.90;;;;;;488235;243;28200;-72
2022/09/25 08:22:25;;;;;;;8.27;6.03;;;12.40;99.90;;;;;;488234;243;28289;-68
2022/09/25 08:24:27;;;;;;;8.30;6.30;;;12.40;99.90;;;;;;488248;243;28284;-70
2022/09/25 08:26:29;;;;;;;6.70;5.73;;;12.30;99.90;;;;;;488087;243;28294;-68
2022/09/25 08:28:29;;;;;;;8.30;6.47;;;12.30;99.90;;;;;;488222;243;28460;-68
2022/09/25 08:30:30;;;;;;;7.23;6.30;;;12.30;99.90;;;;;;488239;243;28854;-72
2022/09/25 08:32:32;;;;;;;7.50;5.07;;;12.30;99.90;;;;;;488227;243;29195;-69
2022/09/25 08:34:33;;;;;;;6.77;5.37;;;12.20;99.90;;;;;;488250;243;28664;-69
2022/09/25 08:36:34;;;;;;;6.73;5.60;;;12.30;99.90;;;;;;488162;243;29699;-69
2022/09/25 08:38:35;;;;;;;8.47;6.10;;;12.30;99.90;;;;;;488254;243;28380;-69
2022/09/25 08:40:37;;;;;;;5.87;5.20;;;12.40;99.90;;;;;;488237;243;27982;-70
2022/09/25 08:42:38;;;;;;;7.20;5.90;;;12.40;99.90;;;;;;488252;243;28369;-70
2022/09/25 08:44:39;;;;;;;5.80;5.20;;;12.40;99.90;;;;;;488254;243;28078;-69
2022/09/25 08:49:08;;;;;;;6.10;5.20;;;12.40;99.90;;;;;;488268;243;28634;-69
2022/09/25 08:51:08;;;;;;;5.37;4.87;;;12.30;99.90;;;;;;488124;243;28235;-69
2022/09/25 08:53:09;;;;;;;5.47;4.50;;;12.40;99.90;;;;;;488257;243;28444;-72
2022/09/25 08:55:10;;;;;;;4.90;4.10;;;12.40;99.90;;;;;;488270;243;28457;-68
2022/09/25 08:57:11;;;;;;;6.50;4.90;;;12.30;99.90;;;;;;488211;243;28081;-69
2022/09/25 08:59:12;;;;;;;4.73;4.20;;;12.40;99.90;;;;;;488278;243;28278;-69
2022/09/25 09:01:14;;;;;;;5.10;4.60;;;12.40;99.90;;;;;;488239;243;28751;-69
2022/09/25 09:03:15;;;;;;;4.73;4.33;;;12.40;99.90;;;;;;488282;243;28108;-71
2022/09/25 09:05:16;;;;;;;5.00;4.37;;;12.50;99.90;;;;;;488242;243;28559;-69
2022/09/25 09:07:17;;;;;;;3.97;3.60;;;12.50;99.90;;;;;;488238;243;28783;-69
2022/09/25 09:09:19;;;;;;;4.67;3.93;;;12.50;99.90;;;;;;488216;243;29493;-69
2022/09/25 09:11:20;;;;;;;4.63;3.97;;;12.60;99.90;;;;;;488270;243;28709;-70
2022/09/25 09:13:21;;;;;;;4.13;3.70;;;12.60;99.90;;;;;;488276;241;28524;-69
2022/09/25 09:15:22;;;;;;;4.43;3.50;;;12.70;99.90;;;;;;488265;243;28124;-69
2022/09/25 09:17:24;;;;;;;4.20;3.40;;;12.60;99.90;;;;;;488234;243;28086;-70
2022/09/25 09:19:25;;;;;;;4.53;3.80;;;12.60;99.90;;;;;;488072;241;28423;-69
2022/09/25 09:21:26;;;;;;;7.40;4.40;;;12.60;99.90;;;;;;488216;243;27937;-69
2022/09/25 09:23:27;;;;;;;3.80;3.40;;;12.60;99.90;;;;;;488252;243;28182;-70
2022/09/25 09:25:29;;;;;;;4.23;3.83;;;12.70;99.90;;;;;;488234;242;28182;-69
2022/09/25 09:27:30;;;;;;;4.10;3.40;;;12.60;99.90;;;;;;488197;243;28343;-70
2022/09/25 09:29:31;;;;;;;4.30;3.30;;;12.60;99.90;;;;;;488243;243;28404;-69
2022/09/25 09:31:32;;;;;;;3.47;3.17;;;12.80;99.90;;;;;;488227;243;28622;-69
2022/09/25 09:33:34;;;;;;;4.13;2.73;;;12.90;99.90;;;;;;488165;243;28647;-72
2022/09/25 09:35:35;;;;;;;3.60;3.30;;;13.00;99.90;;;;;;488221;243;28637;-69
2022/09/25 09:37:36;;;;;;;3.30;3.00;;;13.00;99.90;;;;;;488181;243;28402;-70
2022/09/25 09:39:37;;;;;;;3.23;2.93;;;13.20;99.90;;;;;;488221;243;28650;-69
2022/09/25 09:41:39;;;;;;;2.87;2.67;;;13.30;99.90;;;;;;488205;243;28166;-70
2022/09/25 09:43:42;;;;;;;2.80;2.60;;;13.40;99.90;;;;;;488164;243;28325;-70
2022/09/25 09:45:43;;;;;;;2.70;2.50;;;13.40;99.90;;;;;;488062;243;28362;-69
2022/09/25 09:47:43;;;;;;;3.20;2.90;;;13.30;99.90;;;;;;488102;243;28209;-70
2022/09/25 09:49:44;;;;;;;3.10;2.80;;;13.40;99.90;;;;;;488197;243;28323;-72
2022/09/25 09:51:45;;;;;;;2.50;2.30;;;13.50;99.90;;;;;;488204;243;28288;-69
2022/09/25 09:53:46;;;;;;;2.60;2.40;;;13.50;99.90;;;;;;488227;243;28293;-70
2022/09/25 09:55:47;;;;;;;2.50;2.30;;;13.70;99.90;;;;;;488216;243;28957;-70
2022/09/25 09:57:49;;;;;;;2.83;2.60;;;13.70;99.90;;;;;;488172;243;28980;-69
2022/09/25 09:59:50;;;;;;;2.00;1.90;;;13.60;99.90;;;;;;488226;243;29102;-72
2022/09/25 10:01:51;;;;;;;2.20;2.10;;;13.90;99.90;;;;;;488217;243;28816;-70
2022/09/25 10:03:53;;;;;;;2.50;2.30;;;14.10;99.90;;;;;;488188;243;28935;-70
2022/09/25 10:05:54;;;;;;;3.17;2.20;;;14.20;99.90;;;;;;488149;243;28922;-68
2022/09/25 10:07:55;;;;;;;2.37;2.17;;;14.00;99.90;;;;;;488180;241;28824;-70
2022/09/25 10:09:57;;;;;;;3.07;2.77;;;13.80;99.90;;;;;;488068;243;28963;-73
2022/09/25 10:11:58;;;;;;;3.60;2.57;;;13.60;99.90;;;;;;487675;243;28576;-69
2022/09/25 10:13:59;;;;;;;2.70;2.50;;;13.40;99.90;;;;;;488130;243;28850;-70
2022/09/25 10:16:00;;;;;;;2.40;2.20;;;13.30;99.90;;;;;;488211;243;28647;-69
2022/09/25 10:18:01;;;;;;;2.70;2.50;;;13.10;99.90;;;;;;488190;243;28520;-70
2022/09/25 10:20:02;;;;;;;2.40;2.30;;;13.20;99.90;;;;;;488229;242;28666;-72
2022/09/25 10:22:04;;;;;;;3.60;2.53;;;13.30;99.90;;;;;;488231;243;29298;-70
2022/09/25 10:24:05;;;;;;;2.97;2.57;;;13.40;99.90;;;;;;488210;243;28866;-70
2022/09/25 10:26:06;;;;;;;2.63;2.43;;;13.50;99.90;;;;;;488163;243;28369;-72
2022/09/25 10:28:07;;;;;;;2.47;2.13;;;13.50;99.90;;;;;;488187;243;28378;-70
2022/09/25 10:30:09;;;;;;;2.33;2.13;;;13.50;99.90;;;;;;488206;243;28519;-70
2022/09/25 10:32:10;;;;;;;2.97;2.23;;;13.60;99.90;;;;;;488219;243;28440;-69
2022/09/25 10:34:11;;;;;;;1.90;1.80;;;13.60;99.90;;;;;;488213;243;28413;-70
2022/09/25 10:36:12;;;;;;;2.40;2.13;;;13.60;99.90;;;;;;488183;243;28489;-69
2022/09/25 10:38:14;;;;;;;2.20;2.10;;;13.50;99.90;;;;;;488209;243;28485;-69
2022/09/25 10:40:15;;;;;;;2.00;1.90;;;13.50;99.90;;;;;;488219;243;28341;-72
2022/09/25 10:42:17;;;;;;;2.40;2.23;;;13.50;99.90;;;;;;488213;242;28727;-70
2022/09/25 10:44:17;;;;;;;2.50;2.30;;;13.60;99.90;;;;;;488176;243;28402;-70